createdAt,value
2022-08-11T00:01:53.864Z,25.80
2022-08-11T00:04:24.468Z,25.84
2022-08-11T00:06:52.335Z,25.75
2022-08-11T00:09:24.175Z,25.75
2022-08-11T00:11:58.434Z,25.73
2022-08-11T00:14:36.904Z,25.70
2022-08-11T00:17:12.000Z,25.69
2022-08-11T00:20:14.038Z,25.67
2022-08-11T00:22:30.127Z,25.67
2022-08-11T00:25:02.210Z,25.65
2022-08-11T00:27:36.600Z,25.67
2022-08-11T00:30:05.680Z,25.67
2022-08-11T00:32:33.484Z,25.67
2022-08-11T00:35:51.317Z,25.65
2022-08-11T00:37:50.671Z,25.68
2022-08-11T00:40:50.695Z,25.67
2022-08-11T00:43:22.226Z,25.65
2022-08-11T00:46:18.608Z,25.63
2022-08-11T00:49:11.969Z,25.60
2022-08-11T00:52:16.093Z,25.59
2022-08-11T00:55:04.331Z,25.60
2022-08-11T00:57:39.682Z,25.56
2022-08-11T01:00:13.331Z,25.57
2022-08-11T01:03:10.588Z,25.56
2022-08-11T01:05:51.562Z,25.53
2022-08-11T01:08:27.077Z,25.49
2022-08-11T01:11:55.241Z,25.48
2022-08-11T01:14:46.840Z,25.47
2022-08-11T01:17:35.733Z,25.45
2022-08-11T01:20:46.774Z,25.44
2022-08-11T01:23:31.455Z,25.46
2022-08-11T01:26:43.125Z,25.46
2022-08-11T01:29:37.262Z,25.49
2022-08-11T01:32:06.616Z,25.48
2022-08-11T01:34:58.342Z,25.44
2022-08-11T01:37:59.175Z,25.38
2022-08-11T01:40:25.689Z,25.35
2022-08-11T01:43:13.875Z,25.38
2022-08-11T01:45:57.292Z,25.39
2022-08-11T01:48:35.877Z,25.37
2022-08-11T01:51:17.113Z,25.35
2022-08-11T01:53:43.946Z,25.28
2022-08-11T01:56:19.250Z,25.28
2022-08-11T01:58:54.361Z,25.21
2022-08-11T02:01:44.432Z,25.22
2022-08-11T02:04:29.409Z,25.15
2022-08-11T02:07:21.448Z,25.04
2022-08-11T02:09:49.596Z,24.98
2022-08-11T02:12:27.256Z,25.05
2022-08-11T02:15:14.251Z,25.31
2022-08-11T02:17:46.820Z,25.57
2022-08-11T02:20:41.140Z,25.75
2022-08-11T02:24:05.387Z,25.88
2022-08-11T02:26:36.733Z,25.96
2022-08-11T02:29:24.735Z,26.11
2022-08-11T02:32:37.907Z,26.01
2022-08-11T02:35:36.742Z,25.94
2022-08-11T02:38:28.154Z,25.94
2022-08-11T02:41:41.820Z,25.91
2022-08-11T02:44:24.666Z,25.94
2022-08-11T02:47:28.140Z,25.94
2022-08-11T02:50:26.682Z,25.90
2022-08-11T02:53:06.580Z,25.85
2022-08-11T02:55:58.238Z,25.81
2022-08-11T02:58:35.462Z,25.78
2022-08-11T03:01:28.435Z,25.70
2022-08-11T03:04:03.892Z,25.64
2022-08-11T03:06:49.483Z,25.56
2022-08-11T03:09:38.433Z,25.51
2022-08-11T03:12:36.691Z,25.38
2022-08-11T03:15:37.505Z,25.30
2022-08-11T03:18:31.678Z,25.20
2022-08-11T03:21:20.937Z,25.14
2022-08-11T03:24:03.608Z,25.09
2022-08-11T03:27:11.080Z,25.02
2022-08-11T03:30:04.960Z,24.95
2022-08-11T03:33:40.844Z,24.88
2022-08-11T03:36:33.762Z,24.82
2022-08-11T03:39:24.517Z,24.76
2022-08-11T03:42:26.168Z,24.66
2022-08-11T03:45:17.788Z,24.56
2022-08-11T03:48:19.741Z,24.51
2022-08-11T03:51:06.353Z,24.45
2022-08-11T03:53:55.949Z,24.37
2022-08-11T03:56:57.746Z,24.32
2022-08-11T03:59:51.232Z,24.26
2022-08-11T04:02:54.928Z,24.17
2022-08-11T04:05:56.982Z,24.14
2022-08-11T04:09:05.319Z,24.14
2022-08-11T04:11:37.939Z,24.11
2022-08-11T04:15:08.303Z,24.16
2022-08-11T04:17:40.565Z,24.11
2022-08-11T04:20:16.685Z,24.06
2022-08-11T04:23:11.866Z,24.03
2022-08-11T04:26:27.007Z,23.97
2022-08-11T04:29:20.772Z,24.00
2022-08-11T04:32:05.931Z,24.01
2022-08-11T04:34:55.661Z,24.06
2022-08-11T04:37:53.365Z,24.08
2022-08-11T04:40:57.688Z,24.08
2022-08-11T04:44:05.445Z,24.10
2022-08-11T04:47:07.675Z,24.14
2022-08-11T04:50:24.972Z,24.17
2022-08-11T04:53:19.175Z,24.14
2022-08-11T04:56:30.305Z,24.18
2022-08-11T04:59:36.999Z,24.23
2022-08-11T05:02:22.207Z,24.28
2022-08-11T05:05:25.932Z,24.34
2022-08-11T05:08:08.676Z,24.40
2022-08-11T05:11:12.915Z,24.49
2022-08-11T05:14:05.134Z,24.54
2022-08-11T05:17:00.138Z,24.77
2022-08-11T05:20:02.204Z,25.44
2022-08-11T05:22:48.962Z,26.08
2022-08-11T05:26:43.267Z,26.59
2022-08-11T05:28:46.824Z,27.19
2022-08-11T05:31:34.149Z,26.80
2022-08-11T05:34:30.031Z,26.25
2022-08-11T05:37:34.405Z,26.10
2022-08-11T05:40:29.196Z,25.82
2022-08-11T05:43:18.183Z,25.82
2022-08-11T05:46:14.572Z,25.84
2022-08-11T05:49:00.354Z,26.38
2022-08-11T05:51:55.254Z,27.28
2022-08-11T05:54:46.652Z,27.87
2022-08-11T05:57:45.450Z,27.69
2022-08-11T06:00:19.471Z,27.45
2022-08-11T06:02:51.198Z,28.02
2022-08-11T06:05:19.624Z,28.51
2022-08-11T06:07:49.979Z,29.03
2022-08-11T06:10:34.936Z,29.33
2022-08-11T06:13:02.386Z,29.73
2022-08-11T06:15:34.192Z,29.99
2022-08-11T06:18:02.953Z,30.44
2022-08-11T06:20:37.425Z,30.86
2022-08-11T06:23:06.816Z,31.08
2022-08-11T06:25:35.859Z,31.29
2022-08-11T06:28:07.488Z,31.50
2022-08-11T06:30:42.420Z,31.76
2022-08-11T06:33:29.564Z,31.79
2022-08-11T06:36:11.088Z,31.53
2022-08-11T06:38:57.178Z,31.72
2022-08-11T06:41:30.424Z,31.35
2022-08-11T06:44:29.255Z,31.44
2022-08-11T06:47:04.377Z,31.54
2022-08-11T06:49:56.409Z,31.72
2022-08-11T06:52:34.468Z,31.68
2022-08-11T06:55:57.752Z,31.33
2022-08-11T06:59:11.241Z,31.66
2022-08-11T07:02:03.459Z,31.75
2022-08-11T07:04:43.162Z,31.77
2022-08-11T07:07:59.659Z,32.30
2022-08-11T07:11:23.439Z,32.42
2022-08-11T07:14:12.916Z,32.61
2022-08-11T07:16:44.438Z,32.42
2022-08-11T07:19:33.371Z,32.30
2022-08-11T07:22:23.245Z,32.61
2022-08-11T07:25:18.250Z,32.81
2022-08-11T07:28:07.525Z,32.63
2022-08-11T07:30:39.775Z,32.52
2022-08-11T07:33:07.340Z,32.76
2022-08-11T07:35:42.630Z,33.06
2022-08-11T07:38:22.652Z,33.50
2022-08-11T07:40:52.005Z,33.77
2022-08-11T07:43:18.722Z,33.46
2022-08-11T07:46:05.220Z,32.55
2022-08-11T07:48:53.089Z,32.99
2022-08-11T07:51:39.523Z,33.76
2022-08-11T07:54:16.331Z,33.50
2022-08-11T07:56:55.012Z,32.89
2022-08-11T08:00:03.453Z,32.32
2022-08-11T08:02:48.813Z,31.57
2022-08-11T08:05:36.172Z,31.46
2022-08-11T08:08:21.639Z,32.48
2022-08-11T08:11:06.957Z,32.91
2022-08-11T08:13:54.084Z,33.34
2022-08-11T08:16:39.983Z,33.29
2022-08-11T08:19:07.018Z,33.53
2022-08-11T08:21:33.864Z,33.98
2022-08-11T08:24:01.081Z,34.28
2022-08-11T08:26:48.269Z,34.34
2022-08-11T08:29:38.656Z,34.68
2022-08-11T08:32:06.952Z,33.96
2022-08-11T08:34:36.805Z,34.28
2022-08-11T08:37:15.688Z,34.34
2022-08-11T08:39:53.384Z,34.11
2022-08-11T08:42:24.329Z,34.35
2022-08-11T08:44:58.834Z,33.85
2022-08-11T08:47:42.076Z,34.12
2022-08-11T08:50:19.363Z,35.03
2022-08-11T08:52:54.787Z,34.98
2022-08-11T08:55:22.444Z,35.43
2022-08-11T08:57:52.665Z,35.51
2022-08-11T09:00:23.225Z,35.14
2022-08-11T09:02:51.525Z,35.40
2022-08-11T09:05:19.961Z,35.32
2022-08-11T09:07:51.088Z,36.38
2022-08-11T09:10:20.321Z,36.25
2022-08-11T09:12:48.201Z,36.01
2022-08-11T09:15:19.434Z,36.14
2022-08-11T09:17:50.409Z,36.48
2022-08-11T09:20:23.825Z,35.72
2022-08-11T09:24:07.442Z,35.63
2022-08-11T09:26:18.961Z,36.15
2022-08-11T09:28:47.113Z,36.37
2022-08-11T09:31:14.819Z,36.50
2022-08-11T09:33:44.031Z,35.73
2022-08-11T09:36:31.649Z,34.61
2022-08-11T09:39:18.964Z,34.84
2022-08-11T09:42:01.040Z,34.62
2022-08-11T09:44:50.484Z,35.13
2022-08-11T09:47:23.446Z,35.19
2022-08-11T09:49:53.739Z,34.94
2022-08-11T09:52:22.237Z,34.09
2022-08-11T09:54:50.782Z,35.37
2022-08-11T09:57:57.222Z,34.82
2022-08-11T10:00:33.096Z,34.25
2022-08-11T10:03:02.654Z,34.37
2022-08-11T10:05:48.869Z,34.78
2022-08-11T10:08:19.220Z,34.88
2022-08-11T10:10:47.585Z,34.76
2022-08-11T10:14:31.296Z,34.55
2022-08-11T10:16:15.940Z,34.88
2022-08-11T10:18:52.300Z,35.14
2022-08-11T10:21:42.344Z,34.05
2022-08-11T10:24:30.402Z,34.16
2022-08-11T10:27:02.759Z,33.65
2022-08-11T10:29:52.110Z,33.69
2022-08-11T10:32:57.283Z,34.47
2022-08-11T10:35:28.093Z,34.29
2022-08-11T10:38:07.890Z,35.17
2022-08-11T10:40:38.801Z,34.35
2022-08-11T10:43:07.556Z,33.60
2022-08-11T10:45:58.087Z,33.93
2022-08-11T10:48:27.009Z,33.66
2022-08-11T10:51:13.639Z,32.85
2022-08-11T10:54:05.199Z,32.83
2022-08-11T10:56:55.057Z,33.30
2022-08-11T10:59:27.494Z,33.35
2022-08-11T11:01:55.451Z,32.76
2022-08-11T11:04:36.070Z,32.58
2022-08-11T11:07:13.796Z,32.69
2022-08-11T11:09:54.313Z,32.58
2022-08-11T11:13:00.424Z,32.63
2022-08-11T11:15:48.434Z,32.49
2022-08-11T11:18:17.744Z,32.83
2022-08-11T11:20:47.500Z,32.59
2022-08-11T11:23:29.441Z,32.47
2022-08-11T11:26:27.421Z,32.77
2022-08-11T11:29:16.238Z,32.66
2022-08-11T11:31:53.360Z,32.17
2022-08-11T11:34:53.288Z,32.22
2022-08-11T11:37:22.794Z,32.56
2022-08-11T11:39:50.239Z,32.23
2022-08-11T11:42:18.548Z,32.37
2022-08-11T11:44:46.855Z,32.44
2022-08-11T11:47:14.441Z,32.45
2022-08-11T11:49:45.213Z,32.74
2022-08-11T11:52:19.034Z,32.47
2022-08-11T11:54:50.241Z,32.48
2022-08-11T11:57:37.658Z,32.45
2022-08-11T12:00:24.932Z,32.50
2022-08-11T12:03:07.772Z,32.37
2022-08-11T12:05:36.226Z,32.57
2022-08-11T12:08:13.137Z,32.75
2022-08-11T12:11:11.271Z,33.03
2022-08-11T12:13:45.952Z,33.29
2022-08-11T12:16:34.633Z,33.67
2022-08-11T12:19:06.624Z,32.98
2022-08-11T12:21:36.060Z,32.59
2022-08-11T12:24:21.910Z,32.79
2022-08-11T12:26:54.381Z,32.83
2022-08-11T12:29:36.448Z,32.47
2022-08-11T12:32:08.984Z,32.32
2022-08-11T12:34:36.575Z,32.15
2022-08-11T12:37:13.516Z,32.45
2022-08-11T12:40:42.223Z,33.00
2022-08-11T12:43:24.338Z,32.79
2022-08-11T12:46:08.103Z,32.58
2022-08-11T12:49:03.587Z,32.03
2022-08-11T12:52:12.417Z,31.89
2022-08-11T12:55:38.753Z,32.29
2022-08-11T12:58:17.075Z,32.85
2022-08-11T13:01:03.655Z,33.12
2022-08-11T13:03:52.376Z,32.94
2022-08-11T13:06:25.098Z,32.92
2022-08-11T13:08:53.303Z,32.55
2022-08-11T13:11:56.576Z,32.12
2022-08-11T13:14:26.082Z,33.09
2022-08-11T13:17:12.268Z,32.80
2022-08-11T13:19:44.187Z,33.04
2022-08-11T13:22:16.157Z,33.06
2022-08-11T13:24:44.175Z,33.26
2022-08-11T13:27:13.980Z,33.17
2022-08-11T13:29:42.932Z,32.62
2022-08-11T13:32:11.353Z,32.93
2022-08-11T13:34:42.312Z,33.47
2022-08-11T13:37:14.593Z,33.80
2022-08-11T13:39:47.200Z,33.37
2022-08-11T13:42:18.068Z,33.82
2022-08-11T13:44:45.397Z,33.53
2022-08-11T13:47:14.311Z,33.08
2022-08-11T13:49:42.597Z,33.61
2022-08-11T13:52:15.360Z,33.57
2022-08-11T13:54:43.145Z,33.51
2022-08-11T13:57:13.429Z,33.62
2022-08-11T13:59:51.954Z,33.43
2022-08-11T14:02:29.251Z,33.51
2022-08-11T14:05:07.123Z,33.46
2022-08-11T14:07:46.379Z,33.83
2022-08-11T14:10:14.935Z,33.73
2022-08-11T14:13:06.491Z,33.54
2022-08-11T14:15:35.083Z,33.07
2022-08-11T14:18:17.132Z,33.24
2022-08-11T14:21:03.188Z,32.62
2022-08-11T14:23:35.971Z,32.97
2022-08-11T14:26:21.885Z,32.96
2022-08-11T14:28:49.028Z,33.12
2022-08-11T14:31:16.072Z,32.70
2022-08-11T14:34:00.264Z,32.53
2022-08-11T14:36:35.925Z,32.48
2022-08-11T14:39:07.262Z,32.81
2022-08-11T14:42:10.631Z,33.04
2022-08-11T14:45:01.589Z,33.12
2022-08-11T14:47:34.480Z,32.74
2022-08-11T14:50:10.733Z,33.00
2022-08-11T14:52:51.302Z,32.88
2022-08-11T14:55:40.868Z,32.97
2022-08-11T14:58:11.081Z,32.32
2022-08-11T15:00:39.345Z,32.18
2022-08-11T15:03:10.936Z,32.31
2022-08-11T15:05:57.112Z,32.50
2022-08-11T15:08:47.941Z,32.41
2022-08-11T15:11:36.147Z,32.49
2022-08-11T15:14:06.296Z,32.35
2022-08-11T15:16:51.861Z,32.51
2022-08-11T15:19:21.158Z,32.59
2022-08-11T15:22:07.800Z,32.80
2022-08-11T15:24:36.419Z,32.98
2022-08-11T15:27:32.855Z,32.64
2022-08-11T15:30:33.020Z,32.58
2022-08-11T15:33:25.742Z,32.57
2022-08-11T15:36:12.721Z,32.42
2022-08-11T15:38:44.308Z,31.81
2022-08-11T15:41:35.996Z,32.06
2022-08-11T15:44:51.462Z,32.26
2022-08-11T15:47:20.331Z,32.00
2022-08-11T15:50:11.883Z,31.59
2022-08-11T15:52:49.743Z,31.71
2022-08-11T15:55:23.715Z,31.55
2022-08-11T15:58:12.331Z,31.69
2022-08-11T16:01:04.232Z,31.59
2022-08-11T16:04:09.520Z,31.60
2022-08-11T16:07:07.018Z,31.51
2022-08-11T16:09:47.420Z,31.40
2022-08-11T16:13:03.147Z,31.51
2022-08-11T16:15:50.560Z,31.34
2022-08-11T16:18:21.020Z,31.39
2022-08-11T16:20:55.391Z,31.43
2022-08-11T16:23:26.528Z,31.19
2022-08-11T16:27:04.996Z,31.10
2022-08-11T16:28:44.388Z,31.03
2022-08-11T16:31:12.681Z,31.03
2022-08-11T16:33:50.082Z,31.01
2022-08-11T16:36:37.592Z,30.96
2022-08-11T16:39:05.530Z,30.79
2022-08-11T16:41:52.231Z,30.74
2022-08-11T16:44:39.303Z,30.71
2022-08-11T16:47:08.522Z,30.59
2022-08-11T16:49:40.167Z,30.48
2022-08-11T16:52:12.013Z,30.54
2022-08-11T16:54:40.315Z,30.56
2022-08-11T16:57:34.410Z,30.60
2022-08-11T17:00:08.119Z,30.43
2022-08-11T17:03:01.162Z,30.36
2022-08-11T17:05:53.750Z,30.26
2022-08-11T17:08:54.223Z,30.27
2022-08-11T17:11:46.017Z,30.11
2022-08-11T17:14:35.276Z,30.05
2022-08-11T17:17:06.168Z,30.03
2022-08-11T17:20:40.712Z,29.97
2022-08-11T17:22:41.732Z,29.94
2022-08-11T17:25:11.660Z,29.89
2022-08-11T17:27:39.096Z,29.78
2022-08-11T17:30:07.791Z,29.72
2022-08-11T17:33:00.498Z,29.72
2022-08-11T17:35:35.914Z,29.66
2022-08-11T17:38:10.155Z,29.59
2022-08-11T17:40:39.049Z,29.58
2022-08-11T17:43:28.478Z,29.56
2022-08-11T17:46:05.203Z,29.45
2022-08-11T17:48:53.150Z,29.29
2022-08-11T17:51:39.484Z,29.24
2022-08-11T17:54:27.629Z,29.13
2022-08-11T17:57:21.104Z,29.08
2022-08-11T17:59:53.971Z,29.07
2022-08-11T18:02:44.672Z,29.02
2022-08-11T18:05:20.326Z,28.97
2022-08-11T18:08:08.892Z,28.86
2022-08-11T18:10:55.015Z,28.88
2022-08-11T18:13:42.050Z,28.85
2022-08-11T18:16:27.953Z,28.82
2022-08-11T18:19:13.937Z,28.77
2022-08-11T18:22:15.180Z,28.72
2022-08-11T18:25:09.021Z,28.68
2022-08-11T18:27:56.879Z,28.59
2022-08-11T18:30:42.869Z,28.49
2022-08-11T18:34:05.427Z,28.42
2022-08-11T18:36:40.296Z,28.40
2022-08-11T18:39:29.259Z,28.35
2022-08-11T18:42:29.733Z,28.30
2022-08-11T18:45:19.659Z,28.22
2022-08-11T18:48:11.351Z,28.16
2022-08-11T18:51:29.665Z,28.13
2022-08-11T18:54:07.938Z,28.14
2022-08-11T18:56:54.357Z,28.11
2022-08-11T18:59:44.236Z,28.12
2022-08-11T19:02:32.126Z,28.11
2022-08-11T19:06:06.239Z,28.05
2022-08-11T19:08:34.765Z,28.04
2022-08-11T19:11:19.950Z,27.99
2022-08-11T19:14:09.611Z,27.86
2022-08-11T19:16:56.707Z,27.79
2022-08-11T19:19:47.212Z,27.67
2022-08-11T19:22:33.493Z,27.55
2022-08-11T19:25:25.179Z,27.49
2022-08-11T19:28:13.251Z,27.32
2022-08-11T19:30:59.096Z,27.25
2022-08-11T19:33:59.994Z,27.18
2022-08-11T19:36:50.095Z,26.95
2022-08-11T19:39:36.185Z,26.90
2022-08-11T19:42:22.412Z,26.70
2022-08-11T19:45:08.355Z,26.70
2022-08-11T19:48:08.240Z,26.71
2022-08-11T19:51:01.244Z,26.69
2022-08-11T19:53:49.532Z,26.71
2022-08-11T19:56:36.064Z,26.74
2022-08-11T19:59:22.449Z,26.75
2022-08-11T20:02:13.628Z,26.73
2022-08-11T20:05:00.010Z,26.71
2022-08-11T20:07:47.521Z,26.70
2022-08-11T20:10:38.324Z,26.66
2022-08-11T20:13:27.070Z,26.60
2022-08-11T20:16:14.411Z,26.56
2022-08-11T20:19:00.797Z,26.50
2022-08-11T20:21:47.414Z,26.52
2022-08-11T20:24:36.093Z,26.52
2022-08-11T20:27:24.970Z,26.56
2022-08-11T20:30:12.570Z,26.53
2022-08-11T20:32:59.716Z,26.53
2022-08-11T20:35:45.645Z,26.52
2022-08-11T20:38:32.728Z,26.54
2022-08-11T20:41:20.255Z,26.54
2022-08-11T20:44:09.433Z,26.54
2022-08-11T20:46:59.899Z,26.55
2022-08-11T20:49:56.595Z,26.50
2022-08-11T20:52:48.830Z,26.41
2022-08-11T20:55:51.230Z,26.29
2022-08-11T21:01:45.300Z,26.03
2022-08-11T21:04:30.839Z,25.82
2022-08-11T21:07:28.481Z,25.60
2022-08-11T21:10:23.133Z,25.59
2022-08-11T21:13:25.706Z,25.61
2022-08-11T21:16:26.543Z,25.64
2022-08-11T21:20:01.153Z,25.67
2022-08-11T21:22:59.657Z,25.74
2022-08-11T21:26:05.865Z,25.86
2022-08-11T21:28:53.272Z,25.93
2022-08-11T21:31:40.299Z,25.96
2022-08-11T21:34:29.401Z,26.00
2022-08-11T21:37:16.000Z,26.09
2022-08-11T21:40:03.457Z,26.13
2022-08-11T21:42:57.282Z,26.14
2022-08-11T21:45:44.057Z,26.15
2022-08-11T21:48:30.992Z,26.20
2022-08-11T21:51:17.103Z,26.19
2022-08-11T21:54:02.859Z,26.35
2022-08-11T21:56:51.840Z,26.47
2022-08-11T21:59:54.296Z,26.45
2022-08-11T22:02:40.395Z,26.36
2022-08-11T22:05:26.769Z,26.17
2022-08-11T22:08:12.137Z,26.03
2022-08-11T22:10:58.149Z,25.92
2022-08-11T22:13:43.416Z,25.67
2022-08-11T22:16:48.440Z,25.39
2022-08-11T22:19:35.431Z,25.12
2022-08-11T22:22:21.293Z,24.82
2022-08-11T22:25:16.638Z,24.65
2022-08-11T22:28:04.027Z,24.41
2022-08-11T22:30:49.351Z,24.23
2022-08-11T22:33:35.233Z,24.00
2022-08-11T22:36:22.868Z,23.87
2022-08-11T22:39:09.359Z,23.89
2022-08-11T22:41:55.060Z,23.83
2022-08-11T22:44:40.365Z,23.69
2022-08-11T22:47:30.240Z,23.69
2022-08-11T22:50:26.677Z,23.57
2022-08-11T22:53:13.561Z,23.50
2022-08-11T22:55:59.591Z,23.49
2022-08-11T22:58:45.425Z,23.41
2022-08-11T23:01:35.559Z,23.42
2022-08-11T23:04:21.869Z,23.49
2022-08-11T23:07:08.135Z,23.50
2022-08-11T23:09:53.433Z,23.49
2022-08-11T23:12:39.072Z,23.50
2022-08-11T23:15:26.667Z,23.48
2022-08-11T23:18:12.378Z,23.57
2022-08-11T23:20:59.225Z,23.56
2022-08-11T23:23:47.434Z,23.59
2022-08-11T23:26:34.805Z,23.60
2022-08-11T23:29:21.272Z,23.54
2022-08-11T23:32:09.641Z,23.49
2022-08-11T23:35:04.849Z,23.41
2022-08-11T23:38:03.392Z,23.36
2022-08-11T23:40:48.850Z,23.22
2022-08-11T23:43:41.489Z,23.23
2022-08-11T23:46:26.789Z,23.19
2022-08-11T23:49:15.653Z,23.11
2022-08-11T23:52:02.127Z,23.06
2022-08-11T23:54:47.920Z,23.07
2022-08-11T23:57:33.340Z,23.09
